Niwot, Colorado
Current Conditions -  °F | °C
As of 7:55 AM on Monday 24 Nov 2014 (Local Time) from KLMO Reporting Station
Clear Clear  
Wind Chill: 35°   Ceiling: Unl
Heat Index: 35°   Visibility: 10mi
Dew Point:   Wind: 3mph
Humidity: 34%   Direction: 130°SE
Pressure: 29.91"   Gusts: NA
Location:  40.1°N, 105.17°W
Report Text: KLMO 241455Z AUTO 13003KT 10SM CLR 02/M13 A2991 RMK AO2 T00191126
Loading
Personal Weather Stations






























Interactive Weather Map New forecast layout! Learn more

10-Day Weather Forecast

Advertisements
Track Severe Weather on mobile